createdAt,value
2022-08-24T00:00:30.492Z,26.20
2022-08-24T00:02:59.694Z,26.20
2022-08-24T00:05:29.108Z,26.15
2022-08-24T00:07:58.832Z,26.22
2022-08-24T00:10:28.262Z,26.22
2022-08-24T00:12:59.005Z,26.30
2022-08-24T00:15:29.994Z,26.31
2022-08-24T00:17:59.398Z,26.31
2022-08-24T00:20:29.406Z,26.29
2022-08-24T00:22:59.437Z,26.22
2022-08-24T00:25:29.577Z,26.16
2022-08-24T00:27:59.880Z,26.11
2022-08-24T00:30:30.409Z,26.18
2022-08-24T00:33:00.572Z,26.20
2022-08-24T00:35:32.176Z,26.05
2022-08-24T00:38:01.243Z,26.17
2022-08-24T00:40:34.865Z,26.14
2022-08-24T00:43:06.056Z,26.22
2022-08-24T00:45:42.202Z,26.26
2022-08-24T00:48:17.175Z,26.16
2022-08-24T00:50:50.880Z,26.17
2022-08-24T00:53:27.152Z,26.18
2022-08-24T00:55:59.935Z,26.18
2022-08-24T00:58:35.036Z,26.19
2022-08-24T01:01:08.024Z,26.16
2022-08-24T01:03:39.027Z,26.11
2022-08-24T01:06:08.554Z,26.12
2022-08-24T01:08:37.769Z,25.97
2022-08-24T01:11:13.246Z,26.12
2022-08-24T01:13:44.675Z,26.04
2022-08-24T01:16:37.963Z,26.11
2022-08-24T01:19:11.784Z,26.09
2022-08-24T01:21:48.404Z,26.13
2022-08-24T01:24:19.269Z,26.12
2022-08-24T01:26:52.053Z,26.00
2022-08-24T01:29:27.236Z,25.89
2022-08-24T01:31:57.964Z,25.89
2022-08-24T01:34:28.499Z,25.89
2022-08-24T01:37:00.403Z,26.03
2022-08-24T01:39:33.982Z,26.10
2022-08-24T01:42:03.587Z,26.07
2022-08-24T01:44:36.086Z,26.15
2022-08-24T01:47:07.905Z,26.14
2022-08-24T01:49:40.203Z,26.13
2022-08-24T01:52:12.914Z,26.11
2022-08-24T01:54:44.340Z,26.11
2022-08-24T01:57:16.127Z,26.68
2022-08-24T01:59:46.390Z,26.09
2022-08-24T02:02:19.875Z,26.06
2022-08-24T02:04:49.614Z,25.98
2022-08-24T02:07:20.090Z,25.95
2022-08-24T02:09:50.803Z,25.96
2022-08-24T02:12:21.122Z,25.95
2022-08-24T02:15:11.717Z,26.06
2022-08-24T02:17:41.000Z,25.98
2022-08-24T02:20:11.363Z,25.95
2022-08-24T02:22:40.395Z,25.87
2022-08-24T02:25:14.177Z,25.95
2022-08-24T02:27:44.076Z,25.79
2022-08-24T02:30:15.169Z,25.78
2022-08-24T02:32:44.801Z,25.69
2022-08-24T02:35:14.503Z,25.58
2022-08-24T02:37:45.106Z,25.56
2022-08-24T02:40:17.823Z,25.55
2022-08-24T02:42:48.318Z,25.51
2022-08-24T02:45:18.314Z,25.57
2022-08-24T02:47:48.023Z,25.57
2022-08-24T02:50:19.509Z,25.58
2022-08-24T02:52:49.054Z,25.51
2022-08-24T02:55:20.734Z,25.54
2022-08-24T02:57:53.141Z,25.57
2022-08-24T03:00:23.576Z,25.67
2022-08-24T03:02:53.340Z,25.73
2022-08-24T03:05:24.514Z,25.72
2022-08-24T03:07:53.688Z,25.67
2022-08-24T03:10:24.370Z,25.81
2022-08-24T03:12:54.161Z,26.35
2022-08-24T03:15:28.190Z,25.75
2022-08-24T03:17:58.626Z,25.70
2022-08-24T03:20:29.645Z,25.64
2022-08-24T03:22:59.692Z,25.73
2022-08-24T03:25:31.265Z,25.77
2022-08-24T03:28:00.368Z,25.76
2022-08-24T03:30:30.814Z,25.72
2022-08-24T03:33:01.454Z,25.62
2022-08-24T03:35:31.290Z,25.62
2022-08-24T03:38:01.858Z,25.65
2022-08-24T03:40:33.421Z,25.55
2022-08-24T03:43:04.427Z,25.50
2022-08-24T03:45:33.831Z,25.53
2022-08-24T03:48:03.219Z,25.40
2022-08-24T03:50:32.698Z,25.38
2022-08-24T03:53:01.768Z,25.36
2022-08-24T03:55:32.621Z,25.26
2022-08-24T03:58:01.930Z,25.25
2022-08-24T04:00:31.338Z,25.25
2022-08-24T04:03:01.567Z,25.34
2022-08-24T04:05:35.202Z,25.33
2022-08-24T04:08:06.014Z,25.25
2022-08-24T04:10:38.596Z,25.31
2022-08-24T04:13:08.585Z,25.28
2022-08-24T04:15:41.599Z,25.43
2022-08-24T04:18:12.432Z,25.41
2022-08-24T04:20:43.270Z,25.50
2022-08-24T04:23:16.778Z,25.56
2022-08-24T04:25:49.750Z,25.77
2022-08-24T04:28:21.139Z,25.86
2022-08-24T04:30:51.640Z,25.91
2022-08-24T04:33:38.629Z,26.06
2022-08-24T04:36:10.250Z,26.15
2022-08-24T04:38:43.311Z,26.01
2022-08-24T04:41:43.212Z,26.17
2022-08-24T04:44:13.981Z,26.18
2022-08-24T04:46:43.527Z,26.18
2022-08-24T04:49:13.185Z,26.21
2022-08-24T04:51:42.887Z,26.38
2022-08-24T04:54:12.235Z,26.38
2022-08-24T04:56:43.483Z,26.31
2022-08-24T04:59:12.637Z,26.24
2022-08-24T05:01:44.599Z,26.26
2022-08-24T05:04:14.662Z,26.37
2022-08-24T05:06:45.871Z,26.34
2022-08-24T05:09:15.618Z,26.08
2022-08-24T05:11:49.705Z,26.13
2022-08-24T05:14:28.572Z,26.14
2022-08-24T05:16:58.633Z,26.14
2022-08-24T05:19:29.545Z,26.12
2022-08-24T05:21:59.767Z,25.98
2022-08-24T05:24:30.162Z,26.05
2022-08-24T05:27:01.468Z,26.11
2022-08-24T05:29:34.011Z,26.01
2022-08-24T05:32:04.661Z,26.01
2022-08-24T05:34:37.764Z,26.07
2022-08-24T05:37:07.879Z,25.91
2022-08-24T05:39:53.939Z,25.98
2022-08-24T05:42:26.968Z,26.11
2022-08-24T05:44:56.723Z,26.15
2022-08-24T05:47:29.408Z,26.28
2022-08-24T05:50:06.685Z,26.36
2022-08-24T05:52:36.845Z,26.43
2022-08-24T05:55:07.707Z,26.60
2022-08-24T05:57:39.480Z,27.38
2022-08-24T06:00:20.396Z,26.84
2022-08-24T06:02:57.906Z,26.89
2022-08-24T06:05:28.009Z,26.97
2022-08-24T06:07:58.101Z,26.99
2022-08-24T06:10:36.617Z,26.97
2022-08-24T06:13:11.501Z,27.02
2022-08-24T06:15:42.723Z,27.06
2022-08-24T06:18:20.832Z,27.00
2022-08-24T06:20:50.714Z,26.95
2022-08-24T06:23:26.614Z,27.07
2022-08-24T06:26:23.258Z,27.22
2022-08-24T06:28:55.873Z,27.25
2022-08-24T06:31:25.617Z,28.16
2022-08-24T06:33:57.418Z,27.81
2022-08-24T06:36:26.614Z,27.97
2022-08-24T06:38:57.348Z,28.70
2022-08-24T06:41:28.004Z,29.41
2022-08-24T06:43:59.771Z,30.18
2022-08-24T06:46:47.109Z,31.01
2022-08-24T06:49:19.241Z,31.37
2022-08-24T06:51:50.915Z,31.97
2022-08-24T06:54:21.215Z,32.08
2022-08-24T06:56:51.641Z,32.00
2022-08-24T06:59:23.194Z,32.57
2022-08-24T07:01:53.710Z,32.56
2022-08-24T07:04:27.520Z,32.37
2022-08-24T07:07:00.814Z,33.10
2022-08-24T07:09:33.595Z,33.52
2022-08-24T07:12:04.705Z,33.38
2022-08-24T07:14:36.100Z,34.04
2022-08-24T07:17:05.817Z,34.09
2022-08-24T07:19:36.017Z,34.46
2022-08-24T07:22:07.582Z,34.90
2022-08-24T07:24:38.017Z,35.25
2022-08-24T07:27:08.296Z,35.31
2022-08-24T07:29:56.488Z,34.59
2022-08-24T07:33:08.713Z,35.12
2022-08-24T07:35:41.609Z,34.95
2022-08-24T07:38:14.454Z,35.54
2022-08-24T07:41:14.347Z,35.10
2022-08-24T07:43:43.089Z,36.02
2022-08-24T07:46:14.759Z,36.45
2022-08-24T07:48:44.931Z,36.34
2022-08-24T07:51:16.517Z,37.20
2022-08-24T07:53:54.641Z,36.68
2022-08-24T07:56:30.558Z,36.22
2022-08-24T07:59:03.476Z,36.02
2022-08-24T08:01:36.275Z,36.41
2022-08-24T08:04:08.100Z,35.82
2022-08-24T08:06:38.236Z,36.19
2022-08-24T08:09:09.856Z,37.06
2022-08-24T08:11:39.723Z,37.53
2022-08-24T08:14:09.108Z,36.99
2022-08-24T08:16:39.694Z,37.29
2022-08-24T08:19:10.677Z,37.14
2022-08-24T08:22:03.139Z,36.91
2022-08-24T08:24:38.394Z,36.43
2022-08-24T08:27:09.229Z,36.91
2022-08-24T08:29:42.306Z,37.04
2022-08-24T08:32:17.343Z,37.69
2022-08-24T08:34:48.770Z,38.09
2022-08-24T08:37:19.146Z,38.16
2022-08-24T08:39:49.180Z,38.20
2022-08-24T08:42:57.225Z,38.78
2022-08-24T08:45:36.532Z,37.91
2022-08-24T08:48:55.521Z,37.94
2022-08-24T08:51:56.780Z,37.32
2022-08-24T08:54:49.849Z,37.60
2022-08-24T08:57:44.068Z,37.91
2022-08-24T09:00:18.244Z,37.89
2022-08-24T09:03:14.336Z,37.31
2022-08-24T09:06:26.749Z,38.03
2022-08-24T09:09:35.134Z,39.21
2022-08-24T09:12:13.033Z,39.29
2022-08-24T09:15:20.988Z,39.52
2022-08-24T09:18:05.924Z,39.28
2022-08-24T09:21:04.662Z,39.29
2022-08-24T09:23:48.016Z,39.31
2022-08-24T09:26:27.201Z,39.67
2022-08-24T09:29:11.310Z,38.58
2022-08-24T09:31:53.071Z,38.68
2022-08-24T09:34:39.296Z,38.92
2022-08-24T09:37:36.362Z,39.18
2022-08-24T09:40:27.368Z,38.93
2022-08-24T09:43:36.975Z,39.29
2022-08-24T09:46:34.629Z,39.79
2022-08-24T09:49:29.331Z,39.07
2022-08-24T09:52:23.131Z,39.02
2022-08-24T09:55:48.139Z,39.04
2022-08-24T09:58:27.329Z,38.04
2022-08-24T10:01:09.107Z,38.61
2022-08-24T10:03:53.680Z,39.68
2022-08-24T10:06:33.356Z,39.58
2022-08-24T10:09:20.657Z,40.15
2022-08-24T10:12:04.117Z,40.96
2022-08-24T10:14:53.017Z,40.40
2022-08-24T10:17:33.314Z,39.22
2022-08-24T10:20:11.519Z,39.25
2022-08-24T10:23:08.228Z,38.92
2022-08-24T10:25:45.375Z,39.04
2022-08-24T10:28:37.945Z,40.43
2022-08-24T10:31:12.911Z,40.97
2022-08-24T10:34:00.755Z,40.84
2022-08-24T10:36:50.511Z,40.25
2022-08-24T10:39:41.510Z,39.83
2022-08-24T10:43:09.489Z,40.45
2022-08-24T10:49:17.399Z,41.77
2022-08-24T10:52:09.454Z,40.89
2022-08-24T10:54:39.176Z,40.33
2022-08-24T10:57:16.876Z,40.63
2022-08-24T10:59:57.118Z,40.84
2022-08-24T11:02:34.295Z,41.25
2022-08-24T11:05:17.256Z,42.14
2022-08-24T11:07:59.106Z,42.26
2022-08-24T11:10:31.895Z,42.10
2022-08-24T11:13:22.130Z,41.63
2022-08-24T11:15:54.553Z,40.18
2022-08-24T11:18:25.453Z,39.66
2022-08-24T11:21:00.715Z,40.33
2022-08-24T11:23:38.821Z,40.43
2022-08-24T11:26:19.813Z,40.11
2022-08-24T11:28:55.723Z,39.97
2022-08-24T11:31:35.959Z,39.43
2022-08-24T11:34:08.196Z,40.82
2022-08-24T11:36:42.840Z,40.65
2022-08-24T11:39:18.586Z,40.08
2022-08-24T11:41:57.330Z,39.99
2022-08-24T11:44:42.631Z,39.81
2022-08-24T11:47:40.964Z,39.57
2022-08-24T11:50:24.588Z,39.73
2022-08-24T11:53:12.146Z,40.02
2022-08-24T11:55:57.501Z,40.13
2022-08-24T11:58:40.159Z,39.77
2022-08-24T12:01:19.374Z,39.10
2022-08-24T12:04:08.984Z,38.92
2022-08-24T12:06:49.235Z,39.44
2022-08-24T12:09:31.928Z,39.68
2022-08-24T12:12:10.680Z,39.71
2022-08-24T12:14:46.286Z,38.73
2022-08-24T12:17:22.029Z,37.84
2022-08-24T12:19:57.077Z,36.96
2022-08-24T12:22:28.584Z,36.70
2022-08-24T12:25:24.455Z,36.68
2022-08-24T12:28:02.234Z,36.29
2022-08-24T12:30:36.283Z,35.55
2022-08-24T12:33:15.840Z,35.15
2022-08-24T12:35:49.560Z,34.89
2022-08-24T12:38:26.648Z,34.81
2022-08-24T12:41:17.717Z,34.57
2022-08-24T12:43:54.879Z,34.47
2022-08-24T12:46:27.725Z,34.38
2022-08-24T12:49:01.594Z,34.45
2022-08-24T12:51:46.393Z,34.32
2022-08-24T12:54:37.107Z,34.15
2022-08-24T12:57:32.586Z,34.38
2022-08-24T13:00:09.617Z,33.91
2022-08-24T13:02:48.305Z,33.66
2022-08-24T13:05:21.020Z,33.60
2022-08-24T13:07:56.278Z,33.68
2022-08-24T13:10:45.152Z,33.64
2022-08-24T13:13:23.949Z,33.64
2022-08-24T13:16:03.566Z,33.38
2022-08-24T13:19:07.966Z,33.51
2022-08-24T13:21:58.883Z,33.41
2022-08-24T13:25:03.051Z,33.81
2022-08-24T13:28:05.793Z,33.60
2022-08-24T13:31:21.054Z,33.63
2022-08-24T13:33:58.542Z,33.71
2022-08-24T13:36:55.295Z,34.21
2022-08-24T13:40:05.817Z,34.09
2022-08-24T13:43:01.205Z,33.92
2022-08-24T13:45:48.074Z,33.47
2022-08-24T13:48:29.176Z,33.16
2022-08-24T13:51:27.002Z,33.27
2022-08-24T13:54:20.030Z,33.06
2022-08-24T13:57:05.225Z,32.96
2022-08-24T13:59:54.829Z,32.85
2022-08-24T14:02:38.723Z,32.86
2022-08-24T14:05:25.903Z,32.84
2022-08-24T14:08:08.231Z,32.84
2022-08-24T14:10:53.759Z,32.71
2022-08-24T14:13:49.655Z,32.77
2022-08-24T14:17:03.157Z,32.75
2022-08-24T14:19:45.796Z,32.77
2022-08-24T14:22:30.259Z,32.87
2022-08-24T14:25:18.320Z,33.00
2022-08-24T14:27:50.622Z,32.89
2022-08-24T14:30:45.950Z,32.91
2022-08-24T14:33:29.864Z,32.86
2022-08-24T14:36:21.054Z,32.86
2022-08-24T14:39:05.211Z,32.82
2022-08-24T14:42:00.021Z,33.07
2022-08-24T14:44:50.531Z,32.95
2022-08-24T14:47:40.102Z,32.97
2022-08-24T14:50:20.390Z,32.77
2022-08-24T14:53:01.560Z,32.86
2022-08-24T14:55:39.674Z,32.70
2022-08-24T14:58:29.360Z,33.03
2022-08-24T15:01:40.764Z,33.12
2022-08-24T15:04:45.103Z,33.23
2022-08-24T15:07:31.317Z,32.96
2022-08-24T15:10:03.763Z,32.60
2022-08-24T15:12:44.238Z,32.48
2022-08-24T15:15:26.882Z,32.27
2022-08-24T15:18:09.500Z,32.18
2022-08-24T15:20:58.799Z,32.09
2022-08-24T15:23:43.490Z,32.08
2022-08-24T15:26:22.683Z,31.92
2022-08-24T15:28:56.800Z,31.87
2022-08-24T15:31:34.211Z,31.87
2022-08-24T15:34:07.315Z,31.71
2022-08-24T15:36:38.646Z,31.64
2022-08-24T15:39:09.747Z,31.59
2022-08-24T15:41:44.290Z,31.52
2022-08-24T15:44:24.485Z,31.51
2022-08-24T15:47:02.028Z,31.52
2022-08-24T15:49:46.832Z,31.48
2022-08-24T15:52:41.664Z,31.61
2022-08-24T15:55:20.047Z,31.31
2022-08-24T15:57:50.076Z,31.18
2022-08-24T16:00:48.023Z,31.16
2022-08-24T16:03:24.312Z,31.20
2022-08-24T16:05:56.877Z,30.99
2022-08-24T16:08:30.763Z,30.87
2022-08-24T16:11:21.597Z,31.02
2022-08-24T16:13:53.602Z,30.80
2022-08-24T16:16:34.444Z,30.81
2022-08-24T16:19:09.998Z,30.72
2022-08-24T16:21:45.396Z,30.58
2022-08-24T16:24:28.244Z,30.71
2022-08-24T16:27:04.752Z,30.51
2022-08-24T16:29:56.036Z,30.44
2022-08-24T16:32:32.032Z,30.36
2022-08-24T16:35:20.942Z,30.46
2022-08-24T16:37:52.544Z,30.07
2022-08-24T16:40:23.548Z,29.95
2022-08-24T16:42:55.266Z,30.59
2022-08-24T16:45:26.352Z,30.02
2022-08-24T16:48:01.450Z,30.57
2022-08-24T16:50:38.287Z,29.91
2022-08-24T16:53:10.915Z,29.59
2022-08-24T16:55:41.445Z,29.67
2022-08-24T16:58:11.555Z,29.63
2022-08-24T17:00:41.873Z,29.54
2022-08-24T17:03:15.136Z,29.61
2022-08-24T17:05:47.756Z,29.62
2022-08-24T17:08:20.025Z,29.55
2022-08-24T17:10:53.013Z,29.63
2022-08-24T17:16:15.087Z,29.38
2022-08-24T17:18:45.229Z,29.79
2022-08-24T17:21:18.562Z,29.41
2022-08-24T17:23:49.092Z,29.31
2022-08-24T17:26:20.705Z,29.32
2022-08-24T17:28:54.726Z,29.33
2022-08-24T17:31:25.566Z,29.32
2022-08-24T17:34:00.345Z,29.12
2022-08-24T17:36:33.746Z,29.02
2022-08-24T17:39:05.478Z,28.87
2022-08-24T17:41:36.516Z,28.88
2022-08-24T17:44:07.530Z,29.43
2022-08-24T17:46:37.839Z,28.68
2022-08-24T17:49:11.113Z,28.59
2022-08-24T17:51:44.403Z,28.64
2022-08-24T17:54:16.131Z,28.45
2022-08-24T17:56:49.266Z,28.39
2022-08-24T17:59:31.244Z,28.30
2022-08-24T18:02:07.297Z,28.41
2022-08-24T18:04:38.147Z,28.36
2022-08-24T18:07:13.613Z,28.38
2022-08-24T18:09:48.357Z,28.36
2022-08-24T18:12:21.544Z,28.36
2022-08-24T18:14:51.929Z,28.33
2022-08-24T18:17:30.829Z,28.41
2022-08-24T18:20:01.356Z,28.36
2022-08-24T18:22:35.352Z,28.41
2022-08-24T18:25:06.416Z,28.38
2022-08-24T18:27:46.020Z,28.27
2022-08-24T18:30:22.478Z,28.33
2022-08-24T18:32:54.428Z,28.16
2022-08-24T18:35:24.639Z,28.15
2022-08-24T18:37:57.451Z,28.26
2022-08-24T18:40:29.180Z,28.28
2022-08-24T18:43:06.331Z,28.31
2022-08-24T18:45:37.487Z,28.27
2022-08-24T18:48:07.850Z,28.38
2022-08-24T18:50:42.044Z,28.30
2022-08-24T18:53:13.737Z,28.21
2022-08-24T18:55:47.350Z,28.18
2022-08-24T18:58:17.566Z,28.04
2022-08-24T19:00:49.045Z,28.16
2022-08-24T19:03:24.000Z,28.00
2022-08-24T19:05:54.762Z,28.14
2022-08-24T19:08:25.881Z,28.26
2022-08-24T19:10:56.427Z,28.23
2022-08-24T19:13:26.678Z,28.08
2022-08-24T19:15:56.074Z,27.97
2022-08-24T19:18:28.624Z,27.95
2022-08-24T19:21:02.499Z,27.95
2022-08-24T19:23:36.987Z,27.90
2022-08-24T19:26:06.660Z,27.78
2022-08-24T19:28:37.204Z,27.82
2022-08-24T19:31:12.497Z,27.79
2022-08-24T19:33:49.812Z,27.69
2022-08-24T19:36:20.642Z,27.74
2022-08-24T19:38:52.153Z,27.77
2022-08-24T19:41:22.807Z,27.68
2022-08-24T19:44:30.947Z,27.77
2022-08-24T19:47:02.355Z,27.66
2022-08-24T19:49:33.330Z,27.67
2022-08-24T19:52:04.532Z,27.69
2022-08-24T19:54:41.157Z,28.37
2022-08-24T19:57:32.037Z,28.14
2022-08-24T20:00:06.721Z,27.78
2022-08-24T20:02:36.200Z,27.70
2022-08-24T20:05:06.556Z,27.69
2022-08-24T20:07:37.808Z,27.70
2022-08-24T20:10:12.795Z,28.28
2022-08-24T20:12:42.870Z,27.57
2022-08-24T20:15:14.172Z,27.43
2022-08-24T20:17:46.265Z,27.35
2022-08-24T20:20:21.420Z,27.36
2022-08-24T20:22:51.415Z,27.30
2022-08-24T20:25:23.066Z,27.26
2022-08-24T20:28:12.425Z,27.17
2022-08-24T20:30:46.896Z,27.20
2022-08-24T20:33:18.427Z,27.11
2022-08-24T20:35:47.830Z,27.13
2022-08-24T20:38:20.000Z,27.15
2022-08-24T20:40:51.831Z,27.10
2022-08-24T20:43:22.346Z,27.13
2022-08-24T20:45:52.987Z,27.21
2022-08-24T20:48:28.595Z,27.37
2022-08-24T20:50:59.000Z,27.21
2022-08-24T20:53:28.898Z,27.32
2022-08-24T20:56:07.631Z,27.21
2022-08-24T20:58:38.122Z,27.11
2022-08-24T21:01:10.165Z,27.18
2022-08-24T21:03:40.591Z,27.08
2022-08-24T21:06:13.988Z,27.11
2022-08-24T21:08:46.480Z,27.18
2022-08-24T21:11:20.311Z,27.22
2022-08-24T21:13:50.319Z,27.26
2022-08-24T21:16:21.006Z,27.26
2022-08-24T21:18:50.535Z,27.25
2022-08-24T21:21:22.283Z,27.22
2022-08-24T21:23:55.328Z,27.21
2022-08-24T21:26:33.066Z,27.28
2022-08-24T21:29:04.351Z,27.25
2022-08-24T21:31:33.489Z,27.93
2022-08-24T21:34:22.307Z,27.28
2022-08-24T21:36:54.195Z,27.11
2022-08-24T21:39:24.254Z,27.12
2022-08-24T21:41:57.650Z,27.09
2022-08-24T21:44:27.316Z,26.92
2022-08-24T21:46:57.092Z,26.88
2022-08-24T21:49:27.118Z,26.79
2022-08-24T21:51:57.919Z,26.79
2022-08-24T21:54:26.972Z,26.74
2022-08-24T21:56:58.727Z,26.82
2022-08-24T21:59:28.381Z,26.78
2022-08-24T22:02:02.261Z,26.82
2022-08-24T22:04:31.946Z,26.89
2022-08-24T22:07:02.727Z,26.88
2022-08-24T22:09:32.498Z,27.01
2022-08-24T22:12:03.099Z,27.16
2022-08-24T22:14:32.908Z,27.07
2022-08-24T22:17:02.703Z,27.11
2022-08-24T22:19:33.093Z,27.05
2022-08-24T22:22:03.810Z,27.15
2022-08-24T22:24:36.963Z,27.00
2022-08-24T22:27:08.113Z,27.12
2022-08-24T22:29:37.272Z,27.06
2022-08-24T22:32:07.132Z,27.10
2022-08-24T22:34:37.682Z,27.17
2022-08-24T22:37:07.294Z,27.07
2022-08-24T22:39:36.921Z,27.08
2022-08-24T22:42:09.220Z,27.12
2022-08-24T22:44:38.377Z,26.94
2022-08-24T22:47:13.129Z,26.84
2022-08-24T22:49:44.826Z,26.86
2022-08-24T22:52:16.115Z,26.81
2022-08-24T22:54:45.112Z,27.26
2022-08-24T22:57:19.800Z,26.99
2022-08-24T22:59:49.172Z,26.87
2022-08-24T23:02:20.986Z,26.91
2022-08-24T23:04:52.608Z,26.87
2022-08-24T23:07:22.709Z,26.76
2022-08-24T23:09:52.308Z,26.89
2022-08-24T23:12:25.002Z,26.86
2022-08-24T23:14:55.039Z,26.86
2022-08-24T23:17:24.701Z,26.84
2022-08-24T23:20:05.537Z,26.83
2022-08-24T23:22:38.179Z,26.87
2022-08-24T23:25:11.740Z,26.87
2022-08-24T23:27:46.553Z,26.85
2022-08-24T23:30:18.588Z,26.79
2022-08-24T23:32:47.921Z,26.76
2022-08-24T23:35:16.717Z,26.74
2022-08-24T23:37:45.805Z,26.71
2022-08-24T23:40:16.264Z,26.67
2022-08-24T23:42:47.020Z,26.76
2022-08-24T23:45:16.227Z,26.75
2022-08-24T23:47:45.614Z,26.71
2022-08-24T23:50:15.065Z,26.74
2022-08-24T23:52:44.444Z,26.78
2022-08-24T23:55:20.315Z,26.75
2022-08-24T23:57:54.433Z,26.72
